TimeCDT,TemperatureF,Dew PointF,Humidity,Sea Level PressureIn,VisibilityMPH,Wind Direction,Wind SpeedMPH,Gust SpeedMPH,PrecipitationIn,Events,Conditions,WindDirDegrees,DateUTC
12:15 AM,56.7,53.6,89,30.07,10.0,Calm,Calm,-,N/A,,Clear,0,2013-10-10 05:15:00
12:35 AM,57.4,54.1,89,30.07,10.0,Calm,Calm,-,N/A,,Clear,0,2013-10-10 05:35:00
12:55 AM,56.3,53.4,90,30.07,10.0,Calm,Calm,-,N/A,,Clear,0,2013-10-10 05:55:00
1:15 AM,56.3,53.1,89,30.07,10.0,Calm,Calm,-,N/A,,Clear,0,2013-10-10 06:15:00
1:35 AM,56.7,53.8,90,30.07,10.0,Calm,Calm,-,N/A,,Clear,0,2013-10-10 06:35:00
1:55 AM,56.1,53.4,91,30.07,10.0,Calm,Calm,-,N/A,,Clear,0,2013-10-10 06:55:00
2:15 AM,55.9,53.4,91,30.07,10.0,Calm,Calm,-,N/A,,Clear,0,2013-10-10 07:15:00
2:35 AM,55.6,53.1,91,30.07,10.0,Calm,Calm,-,N/A,,Clear,0,2013-10-10 07:35:00
2:55 AM,55.8,53.1,91,30.07,10.0,Calm,Calm,-,N/A,,Clear,0,2013-10-10 07:55:00
3:15 AM,55.6,52.2,88,30.07,10.0,Calm,Calm,-,N/A,,Clear,0,2013-10-10 08:15:00
3:35 AM,55.4,52.0,88,30.07,10.0,Calm,Calm,-,N/A,,Clear,0,2013-10-10 08:35:00
3:55 AM,55.2,51.3,87,30.07,10.0,Calm,Calm,-,N/A,,Clear,0,2013-10-10 08:55:00
4:15 AM,55.0,51.6,88,30.08,10.0,Calm,Calm,-,N/A,,Clear,0,2013-10-10 09:15:00
4:35 AM,54.0,51.1,90,30.08,10.0,Calm,Calm,-,N/A,,Clear,0,2013-10-10 09:35:00
4:55 AM,54.1,51.4,91,30.08,10.0,Calm,Calm,-,N/A,,Clear,0,2013-10-10 09:55:00
5:15 AM,53.6,51.3,92,30.08,10.0,Calm,Calm,-,N/A,,Clear,0,2013-10-10 10:15:00
5:35 AM,53.8,51.3,91,30.08,10.0,Calm,Calm,-,N/A,,Clear,0,2013-10-10 10:35:00
5:55 AM,53.4,51.1,92,30.09,10.0,Calm,Calm,-,N/A,,Clear,0,2013-10-10 10:55:00
6:15 AM,53.2,50.9,92,30.09,10.0,Calm,Calm,-,N/A,,Clear,0,2013-10-10 11:15:00
6:35 AM,53.2,50.7,91,30.09,10.0,East,3.5,-,N/A,,Clear,100,2013-10-10 11:35:00
6:55 AM,52.9,50.9,93,30.10,10.0,Calm,Calm,-,N/A,,Clear,0,2013-10-10 11:55:00
7:15 AM,53.4,51.1,92,30.10,10.0,ESE,3.5,-,N/A,,Clear,110,2013-10-10 12:15:00
7:35 AM,55.0,52.5,91,30.09,10.0,Calm,Calm,-,N/A,,Clear,0,2013-10-10 12:35:00
7:55 AM,56.7,53.2,88,30.10,10.0,Calm,Calm,-,N/A,,Clear,0,2013-10-10 12:55:00
8:15 AM,59.4,56.1,89,30.10,10.0,Calm,Calm,-,N/A,,Clear,0,2013-10-10 13:15:00
8:35 AM,63.0,56.5,79,30.11,10.0,Calm,Calm,-,N/A,,Clear,0,2013-10-10 13:35:00
8:55 AM,65.5,57.7,76,30.12,10.0,ESE,3.5,-,N/A,,Clear,120,2013-10-10 13:55:00
9:15 AM,66.7,57.7,73,30.12,10.0,SE,3.5,-,N/A,,Clear,140,2013-10-10 14:15:00
9:35 AM,69.1,58.5,69,30.12,10.0,SE,3.5,-,N/A,,Clear,130,2013-10-10 14:35:00
9:55 AM,70.9,58.6,65,30.12,10.0,Calm,Calm,-,N/A,,Clear,0,2013-10-10 14:55:00
10:15 AM,72.5,58.5,61,30.13,10.0,Calm,Calm,-,N/A,,Clear,0,2013-10-10 15:15:00
10:35 AM,73.8,57.9,58,30.13,10.0,Calm,Calm,-,N/A,,Clear,0,2013-10-10 15:35:00
10:55 AM,74.5,57.9,56,30.12,10.0,Calm,Calm,-,N/A,,Clear,0,2013-10-10 15:55:00
11:15 AM,75.6,57.4,53,30.12,10.0,Calm,Calm,-,N/A,,Clear,0,2013-10-10 16:15:00
11:35 AM,76.8,57.2,51,30.12,10.0,Calm,Calm,-,N/A,,Clear,0,2013-10-10 16:35:00
11:55 AM,77.5,56.5,48,30.12,10.0,SSW,4.6,-,N/A,,Clear,200,2013-10-10 16:55:00
12:15 PM,78.8,56.5,46,30.11,10.0,Calm,Calm,-,N/A,,Clear,0,2013-10-10 17:15:00
12:35 PM,79.5,56.7,45,30.10,10.0,Calm,Calm,-,N/A,,Clear,0,2013-10-10 17:35:00
12:55 PM,79.5,55.0,43,30.09,10.0,SSW,5.8,-,N/A,,Clear,210,2013-10-10 17:55:00
1:15 PM,79.9,55.9,44,30.08,10.0,Calm,Calm,-,N/A,,Clear,0,2013-10-10 18:15:00
1:35 PM,80.8,55.8,42,30.06,10.0,Calm,Calm,-,N/A,,Clear,0,2013-10-10 18:35:00
1:55 PM,80.8,55.6,42,30.05,10.0,Calm,Calm,-,N/A,,Clear,0,2013-10-10 18:55:00
2:15 PM,81.0,55.9,42,30.04,10.0,SE,4.6,-,N/A,,Clear,140,2013-10-10 19:15:00
2:35 PM,81.3,56.3,42,30.03,10.0,SSE,4.6,-,N/A,,Clear,150,2013-10-10 19:35:00
2:55 PM,81.7,55.6,41,30.03,10.0,Calm,Calm,-,N/A,,Clear,0,2013-10-10 19:55:00
3:15 PM,81.7,56.3,42,30.02,10.0,Calm,Calm,-,N/A,,Clear,0,2013-10-10 20:15:00
3:35 PM,81.9,55.0,40,30.02,10.0,ESE,4.6,-,N/A,,Clear,120,2013-10-10 20:35:00
3:55 PM,82.4,55.4,39,30.01,10.0,SE,4.6,-,N/A,,Clear,140,2013-10-10 20:55:00
4:15 PM,81.7,56.5,42,30.01,10.0,ESE,3.5,-,N/A,,Clear,120,2013-10-10 21:15:00
4:35 PM,81.5,58.1,45,30.00,10.0,ESE,6.9,-,N/A,,Scattered Clouds,120,2013-10-10 21:35:00
4:55 PM,81.1,57.4,44,30.00,10.0,ESE,6.9,-,N/A,,Scattered Clouds,110,2013-10-10 21:55:00
5:15 PM,80.8,58.6,47,30.00,10.0,SE,9.2,-,N/A,,Scattered Clouds,130,2013-10-10 22:15:00
5:35 PM,79.3,57.2,47,30.00,10.0,ESE,5.8,-,N/A,,Clear,110,2013-10-10 22:35:00
5:55 PM,78.6,57.9,49,30.00,10.0,ESE,6.9,-,N/A,,Clear,120,2013-10-10 22:55:00
6:15 PM,77.0,58.5,53,30.00,10.0,East,3.5,-,N/A,,Clear,100,2013-10-10 23:15:00
6:35 PM,75.2,59.7,58,30.00,10.0,East,4.6,-,N/A,,Clear,100,2013-10-10 23:35:00
6:55 PM,73.0,60.4,65,29.99,10.0,East,4.6,-,N/A,,Clear,100,2013-10-10 23:55:00
7:15 PM,72.0,60.8,68,29.99,10.0,ESE,3.5,-,N/A,,Clear,110,2013-10-11 00:15:00
7:35 PM,70.2,60.8,72,29.99,10.0,ESE,3.5,-,N/A,,Clear,110,2013-10-11 00:35:00
7:55 PM,69.3,60.6,74,29.99,10.0,ESE,3.5,-,N/A,,Clear,120,2013-10-11 00:55:00
8:15 PM,69.3,60.1,72,30.00,10.0,ESE,3.5,-,N/A,,Clear,110,2013-10-11 01:15:00
8:35 PM,68.9,59.9,73,30.00,10.0,Calm,Calm,-,N/A,,Clear,0,2013-10-11 01:35:00
8:55 PM,67.5,59.9,77,30.00,10.0,Calm,Calm,-,N/A,,Clear,0,2013-10-11 01:55:00
9:15 PM,67.3,59.7,77,30.00,10.0,Calm,Calm,-,N/A,,Clear,0,2013-10-11 02:15:00
9:35 PM,66.4,59.7,79,30.00,10.0,Calm,Calm,-,N/A,,Clear,0,2013-10-11 02:35:00
9:55 PM,65.7,59.9,82,30.00,10.0,Calm,Calm,-,N/A,,Clear,0,2013-10-11 02:55:00
10:15 PM,65.7,59.7,81,30.00,10.0,Calm,Calm,-,N/A,,Clear,0,2013-10-11 03:15:00
10:35 PM,66.2,59.4,79,30.00,10.0,Calm,Calm,-,N/A,,Clear,0,2013-10-11 03:35:00
10:55 PM,66.4,59.2,78,30.00,10.0,SE,3.5,-,N/A,,Clear,130,2013-10-11 03:55:00
11:15 PM,66.6,59.4,78,29.99,10.0,SE,4.6,-,N/A,,Clear,140,2013-10-11 04:15:00
11:35 PM,66.2,59.2,78,29.99,10.0,SE,3.5,-,N/A,,Clear,140,2013-10-11 04:35:00
11:55 PM,65.7,59.2,80,29.98,10.0,SE,5.8,-,N/A,,Clear,140,2013-10-11 04:55:00